Gorham, Kansas
Current Conditions -  °F | °C
As of 5:53 AM on Friday 24 Oct 2014 (Local Time) from KRSL Reporting Station
Haze Haze  
Wind Chill: 58°   Ceiling: Unl
Heat Index: 58°   Visibility: 5mi
Dew Point: 56°   Wind: 13mph
Humidity: 93%   Direction: 200°SSW
Pressure: 30"   Gusts: NA
Location:  38.88°N, 99.02°W
Report Text: KRSL 241053Z AUTO 20011KT 5SM BR CLR 14/13 A3000 RMK AO2 SLP151 T01440133
Loading
Personal Weather Stations






























Interactive Weather Map
Tropical Storm Tracking
New forecast layout! Learn more

10-Day Weather Forecast

Advertisements
Track Severe Weather on mobile